sensor_id;sensor_type;location;lat;lon;timestamp;P1;durP1;ratioP1;P2;durP2;ratioP2
58294;SDS011;45705;55.592;37.460;2023-04-01T00:00:16;24.08;;;14.00;;
58294;SDS011;45705;55.592;37.460;2023-04-01T00:02:42;26.65;;;14.95;;
58294;SDS011;45705;55.592;37.460;2023-04-01T00:05:09;24.98;;;13.90;;
58294;SDS011;45705;55.592;37.460;2023-04-01T00:07:36;24.85;;;13.93;;
58294;SDS011;45705;55.592;37.460;2023-04-01T00:10:03;27.02;;;14.77;;
58294;SDS011;45705;55.592;37.460;2023-04-01T00:12:29;26.70;;;14.98;;
58294;SDS011;45705;55.592;37.460;2023-04-01T00:14:55;24.00;;;14.27;;
58294;SDS011;45705;55.592;37.460;2023-04-01T00:17:21;23.80;;;13.75;;
58294;SDS011;45705;55.592;37.460;2023-04-01T00:19:47;23.90;;;13.82;;
58294;SDS011;45705;55.592;37.460;2023-04-01T00:22:13;24.70;;;13.38;;
58294;SDS011;45705;55.592;37.460;2023-04-01T00:24:38;25.88;;;14.07;;
58294;SDS011;45705;55.592;37.460;2023-04-01T00:27:04;23.00;;;13.15;;
58294;SDS011;45705;55.592;37.460;2023-04-01T00:29:31;24.85;;;14.07;;
58294;SDS011;45705;55.592;37.460;2023-04-01T00:31:58;24.20;;;14.10;;
58294;SDS011;45705;55.592;37.460;2023-04-01T00:34:24;25.80;;;13.50;;
58294;SDS011;45705;55.592;37.460;2023-04-01T00:36:50;23.58;;;14.13;;
58294;SDS011;45705;55.592;37.460;2023-04-01T00:39:18;26.95;;;15.23;;
58294;SDS011;45705;55.592;37.460;2023-04-01T00:41:44;27.00;;;14.95;;
58294;SDS011;45705;55.592;37.460;2023-04-01T00:44:16;25.58;;;15.55;;
58294;SDS011;45705;55.592;37.460;2023-04-01T00:46:45;24.85;;;14.38;;
58294;SDS011;45705;55.592;37.460;2023-04-01T00:49:11;26.40;;;15.43;;
58294;SDS011;45705;55.592;37.460;2023-04-01T00:51:38;27.38;;;15.40;;
58294;SDS011;45705;55.592;37.460;2023-04-01T00:54:06;25.65;;;14.25;;
58294;SDS011;45705;55.592;37.460;2023-04-01T00:56:35;26.25;;;14.95;;
58294;SDS011;45705;55.592;37.460;2023-04-01T00:59:13;25.10;;;14.68;;
58294;SDS011;45705;55.592;37.460;2023-04-01T01:01:43;27.00;;;14.97;;
58294;SDS011;45705;55.592;37.460;2023-04-01T01:04:29;27.35;;;14.93;;
58294;SDS011;45705;55.592;37.460;2023-04-01T01:09:58;24.38;;;14.20;;
58294;SDS011;45705;55.592;37.460;2023-04-01T01:26:34;27.75;;;15.02;;
58294;SDS011;45705;55.592;37.460;2023-04-01T01:32:19;26.40;;;13.82;;
58294;SDS011;45705;55.592;37.460;2023-04-01T01:34:53;24.83;;;13.95;;
58294;SDS011;45705;55.592;37.460;2023-04-01T01:37:33;26.45;;;13.40;;
58294;SDS011;45705;55.592;37.460;2023-04-01T01:40:04;25.00;;;14.23;;
58294;SDS011;45705;55.592;37.460;2023-04-01T01:42:35;28.10;;;14.88;;
58294;SDS011;45705;55.592;37.460;2023-04-01T01:45:04;27.35;;;14.43;;
58294;SDS011;45705;55.592;37.460;2023-04-01T01:47:32;26.70;;;14.50;;
58294;SDS011;45705;55.592;37.460;2023-04-01T01:50:00;26.25;;;14.18;;
58294;SDS011;45705;55.592;37.460;2023-04-01T01:52:28;23.60;;;13.95;;
58294;SDS011;45705;55.592;37.460;2023-04-01T01:54:56;26.80;;;14.80;;
58294;SDS011;45705;55.592;37.460;2023-04-01T01:57:27;24.52;;;13.45;;
58294;SDS011;45705;55.592;37.460;2023-04-01T01:59:59;26.20;;;14.75;;
58294;SDS011;45705;55.592;37.460;2023-04-01T02:02:46;28.15;;;14.88;;
58294;SDS011;45705;55.592;37.460;2023-04-01T02:05:18;26.42;;;13.40;;
58294;SDS011;45705;55.592;37.460;2023-04-01T02:07:58;27.05;;;15.32;;
58294;SDS011;45705;55.592;37.460;2023-04-01T02:10:28;25.77;;;14.65;;
58294;SDS011;45705;55.592;37.460;2023-04-01T02:12:58;28.65;;;14.75;;
58294;SDS011;45705;55.592;37.460;2023-04-01T02:15:28;29.23;;;15.82;;
58294;SDS011;45705;55.592;37.460;2023-04-01T02:17:58;28.95;;;15.63;;
58294;SDS011;45705;55.592;37.460;2023-04-01T02:20:25;27.83;;;14.98;;
58294;SDS011;45705;55.592;37.460;2023-04-01T02:25:22;24.90;;;14.40;;
58294;SDS011;45705;55.592;37.460;2023-04-01T02:27:51;30.02;;;15.07;;
58294;SDS011;45705;55.592;37.460;2023-04-01T02:30:18;27.77;;;15.40;;
58294;SDS011;45705;55.592;37.460;2023-04-01T02:32:45;28.92;;;14.75;;
58294;SDS011;45705;55.592;37.460;2023-04-01T02:35:14;29.20;;;15.82;;
58294;SDS011;45705;55.592;37.460;2023-04-01T02:37:42;26.90;;;13.73;;
58294;SDS011;45705;55.592;37.460;2023-04-01T02:40:11;27.70;;;14.20;;
58294;SDS011;45705;55.592;37.460;2023-04-01T02:42:38;27.63;;;14.27;;
58294;SDS011;45705;55.592;37.460;2023-04-01T02:45:04;25.80;;;14.25;;
58294;SDS011;45705;55.592;37.460;2023-04-01T02:47:31;26.30;;;13.88;;
58294;SDS011;45705;55.592;37.460;2023-04-01T02:49:57;23.75;;;12.85;;
58294;SDS011;45705;55.592;37.460;2023-04-01T02:52:24;22.58;;;11.65;;
58294;SDS011;45705;55.592;37.460;2023-04-01T02:54:50;26.50;;;14.52;;
58294;SDS011;45705;55.592;37.460;2023-04-01T02:57:16;26.48;;;14.18;;
58294;SDS011;45705;55.592;37.460;2023-04-01T02:59:42;24.60;;;13.68;;
58294;SDS011;45705;55.592;37.460;2023-04-01T03:02:08;26.30;;;13.57;;
58294;SDS011;45705;55.592;37.460;2023-04-01T03:04:34;24.63;;;12.70;;
58294;SDS011;45705;55.592;37.460;2023-04-01T03:06:59;24.92;;;13.13;;
58294;SDS011;45705;55.592;37.460;2023-04-01T03:09:25;25.95;;;13.02;;
58294;SDS011;45705;55.592;37.460;2023-04-01T03:11:51;25.55;;;14.15;;
58294;SDS011;45705;55.592;37.460;2023-04-01T03:14:17;23.77;;;12.20;;
58294;SDS011;45705;55.592;37.460;2023-04-01T03:16:43;23.48;;;13.32;;
58294;SDS011;45705;55.592;37.460;2023-04-01T03:19:08;24.30;;;13.18;;
58294;SDS011;45705;55.592;37.460;2023-04-01T03:21:34;23.05;;;12.63;;
58294;SDS011;45705;55.592;37.460;2023-04-01T03:24:00;23.42;;;13.23;;
58294;SDS011;45705;55.592;37.460;2023-04-01T03:26:27;22.60;;;12.93;;
58294;SDS011;45705;55.592;37.460;2023-04-01T03:28:53;22.42;;;12.18;;
58294;SDS011;45705;55.592;37.460;2023-04-01T03:31:19;21.77;;;12.68;;
58294;SDS011;45705;55.592;37.460;2023-04-01T03:33:50;20.75;;;12.13;;
58294;SDS011;45705;55.592;37.460;2023-04-01T03:36:16;23.15;;;13.07;;
58294;SDS011;45705;55.592;37.460;2023-04-01T03:38:43;22.55;;;12.07;;
58294;SDS011;45705;55.592;37.460;2023-04-01T03:41:13;23.17;;;11.93;;
58294;SDS011;45705;55.592;37.460;2023-04-01T03:43:41;22.45;;;12.18;;
58294;SDS011;45705;55.592;37.460;2023-04-01T03:46:06;22.73;;;13.07;;
58294;SDS011;45705;55.592;37.460;2023-04-01T03:48:32;22.52;;;12.50;;
58294;SDS011;45705;55.592;37.460;2023-04-01T03:50:58;23.80;;;12.85;;
58294;SDS011;45705;55.592;37.460;2023-04-01T03:53:24;23.17;;;12.43;;
58294;SDS011;45705;55.592;37.460;2023-04-01T03:55:54;21.73;;;12.30;;
58294;SDS011;45705;55.592;37.460;2023-04-01T03:58:21;21.98;;;12.77;;
58294;SDS011;45705;55.592;37.460;2023-04-01T04:00:48;23.67;;;13.02;;
58294;SDS011;45705;55.592;37.460;2023-04-01T04:03:14;24.70;;;13.05;;
58294;SDS011;45705;55.592;37.460;2023-04-01T04:05:47;23.92;;;12.85;;
58294;SDS011;45705;55.592;37.460;2023-04-01T04:08:14;21.75;;;12.77;;
58294;SDS011;45705;55.592;37.460;2023-04-01T04:10:40;25.10;;;13.10;;
58294;SDS011;45705;55.592;37.460;2023-04-01T04:13:06;22.02;;;13.40;;
58294;SDS011;45705;55.592;37.460;2023-04-01T04:15:37;19.98;;;12.35;;
58294;SDS011;45705;55.592;37.460;2023-04-01T04:18:03;21.00;;;13.07;;
58294;SDS011;45705;55.592;37.460;2023-04-01T04:20:29;23.83;;;13.32;;
58294;SDS011;45705;55.592;37.460;2023-04-01T04:22:55;26.38;;;13.35;;
58294;SDS011;45705;55.592;37.460;2023-04-01T04:25:20;21.95;;;12.88;;
58294;SDS011;45705;55.592;37.460;2023-04-01T04:27:46;24.00;;;13.13;;
58294;SDS011;45705;55.592;37.460;2023-04-01T04:30:13;22.65;;;12.82;;
58294;SDS011;45705;55.592;37.460;2023-04-01T04:32:39;23.35;;;12.88;;
58294;SDS011;45705;55.592;37.460;2023-04-01T04:35:06;21.73;;;12.23;;
58294;SDS011;45705;55.592;37.460;2023-04-01T04:37:33;23.80;;;12.52;;
58294;SDS011;45705;55.592;37.460;2023-04-01T04:39:59;20.98;;;12.68;;
58294;SDS011;45705;55.592;37.460;2023-04-01T04:42:25;20.73;;;12.10;;
58294;SDS011;45705;55.592;37.460;2023-04-01T04:44:58;24.38;;;13.48;;
58294;SDS011;45705;55.592;37.460;2023-04-01T04:47:24;22.17;;;12.00;;
58294;SDS011;45705;55.592;37.460;2023-04-01T04:49:50;24.65;;;12.38;;
58294;SDS011;45705;55.592;37.460;2023-04-01T04:52:17;20.80;;;11.15;;
58294;SDS011;45705;55.592;37.460;2023-04-01T04:54:43;20.17;;;11.93;;
58294;SDS011;45705;55.592;37.460;2023-04-01T04:57:08;20.33;;;11.68;;
58294;SDS011;45705;55.592;37.460;2023-04-01T04:59:44;18.98;;;10.48;;
58294;SDS011;45705;55.592;37.460;2023-04-01T05:02:14;20.98;;;11.60;;
58294;SDS011;45705;55.592;37.460;2023-04-01T05:04:40;19.15;;;10.88;;
58294;SDS011;45705;55.592;37.460;2023-04-01T05:07:08;18.75;;;11.02;;
58294;SDS011;45705;55.592;37.460;2023-04-01T05:09:34;18.52;;;10.95;;
58294;SDS011;45705;55.592;37.460;2023-04-01T05:12:01;17.98;;;9.88;;
58294;SDS011;45705;55.592;37.460;2023-04-01T05:14:34;18.80;;;10.82;;
58294;SDS011;45705;55.592;37.460;2023-04-01T05:17:10;18.48;;;10.38;;
58294;SDS011;45705;55.592;37.460;2023-04-01T05:19:37;19.02;;;10.57;;
58294;SDS011;45705;55.592;37.460;2023-04-01T05:22:03;20.13;;;10.98;;
58294;SDS011;45705;55.592;37.460;2023-04-01T05:24:30;18.98;;;10.98;;
58294;SDS011;45705;55.592;37.460;2023-04-01T05:26:56;17.50;;;10.95;;
58294;SDS011;45705;55.592;37.460;2023-04-01T05:29:24;19.70;;;10.90;;
58294;SDS011;45705;55.592;37.460;2023-04-01T05:31:56;18.95;;;10.90;;
58294;SDS011;45705;55.592;37.460;2023-04-01T05:34:21;20.70;;;10.80;;
58294;SDS011;45705;55.592;37.460;2023-04-01T05:36:47;20.85;;;11.07;;
58294;SDS011;45705;55.592;37.460;2023-04-01T05:39:13;22.48;;;11.70;;
58294;SDS011;45705;55.592;37.460;2023-04-01T05:41:39;24.17;;;12.13;;
58294;SDS011;45705;55.592;37.460;2023-04-01T05:44:06;22.83;;;12.43;;
58294;SDS011;45705;55.592;37.460;2023-04-01T05:46:40;23.90;;;12.77;;
58294;SDS011;45705;55.592;37.460;2023-04-01T05:49:25;23.63;;;13.00;;
58294;SDS011;45705;55.592;37.460;2023-04-01T05:51:50;23.70;;;13.15;;
58294;SDS011;45705;55.592;37.460;2023-04-01T05:54:17;24.88;;;13.27;;
58294;SDS011;45705;55.592;37.460;2023-04-01T05:56:44;26.60;;;14.57;;
58294;SDS011;45705;55.592;37.460;2023-04-01T05:59:10;25.77;;;13.68;;
58294;SDS011;45705;55.592;37.460;2023-04-01T06:01:37;27.95;;;14.50;;
58294;SDS011;45705;55.592;37.460;2023-04-01T06:04:03;29.60;;;14.63;;
58294;SDS011;45705;55.592;37.460;2023-04-01T06:06:29;28.60;;;15.13;;
58294;SDS011;45705;55.592;37.460;2023-04-01T06:09:12;36.65;;;16.73;;
58294;SDS011;45705;55.592;37.460;2023-04-01T06:20:21;30.33;;;14.70;;
58294;SDS011;45705;55.592;37.460;2023-04-01T06:25:50;28.73;;;15.57;;
58294;SDS011;45705;55.592;37.460;2023-04-01T06:28:43;35.72;;;17.50;;
58294;SDS011;45705;55.592;37.460;2023-04-01T06:34:15;34.60;;;16.80;;
58294;SDS011;45705;55.592;37.460;2023-04-01T06:43:04;36.70;;;17.88;;
58294;SDS011;45705;55.592;37.460;2023-04-01T06:56:06;32.50;;;17.42;;
58294;SDS011;45705;55.592;37.460;2023-04-01T07:01:29;26.67;;;15.63;;
58294;SDS011;45705;55.592;37.460;2023-04-01T07:04:20;27.77;;;15.38;;
58294;SDS011;45705;55.592;37.460;2023-04-01T07:09:49;25.17;;;13.68;;
58294;SDS011;45705;55.592;37.460;2023-04-01T07:15:34;21.88;;;12.15;;
58294;SDS011;45705;55.592;37.460;2023-04-01T07:18:17;28.50;;;16.05;;
58294;SDS011;45705;55.592;37.460;2023-04-01T07:20:47;36.08;;;20.33;;
58294;SDS011;45705;55.592;37.460;2023-04-01T07:23:25;38.25;;;21.65;;
58294;SDS011;45705;55.592;37.460;2023-04-01T07:26:21;36.20;;;18.23;;
58294;SDS011;45705;55.592;37.460;2023-04-01T07:29:01;29.35;;;16.27;;
58294;SDS011;45705;55.592;37.460;2023-04-01T07:34:26;28.05;;;15.27;;
58294;SDS011;45705;55.592;37.460;2023-04-01T07:39:53;23.77;;;13.02;;
58294;SDS011;45705;55.592;37.460;2023-04-01T08:07:50;23.95;;;13.40;;
58294;SDS011;45705;55.592;37.460;2023-04-01T08:17:26;18.60;;;11.15;;
58294;SDS011;45705;55.592;37.460;2023-04-01T08:20:08;17.95;;;10.65;;
58294;SDS011;45705;55.592;37.460;2023-04-01T08:22:43;17.80;;;10.90;;
58294;SDS011;45705;55.592;37.460;2023-04-01T08:25:25;17.73;;;10.80;;
58294;SDS011;45705;55.592;37.460;2023-04-01T08:28:13;16.80;;;11.45;;
58294;SDS011;45705;55.592;37.460;2023-04-01T08:33:33;18.20;;;9.87;;
58294;SDS011;45705;55.592;37.460;2023-04-01T08:50:43;16.17;;;8.98;;
58294;SDS011;45705;55.592;37.460;2023-04-01T08:57:04;17.70;;;9.77;;
58294;SDS011;45705;55.592;37.460;2023-04-01T09:00:00;17.20;;;9.50;;
58294;SDS011;45705;55.592;37.460;2023-04-01T09:22:42;13.63;;;8.30;;
58294;SDS011;45705;55.592;37.460;2023-04-01T09:25:45;17.17;;;9.07;;
58294;SDS011;45705;55.592;37.460;2023-04-01T09:28:18;14.55;;;8.43;;
58294;SDS011;45705;55.592;37.460;2023-04-01T09:37:13;13.02;;;8.25;;
58294;SDS011;45705;55.592;37.460;2023-04-01T09:44:52;12.90;;;7.78;;
58294;SDS011;45705;55.592;37.460;2023-04-01T09:50:28;12.00;;;6.28;;
58294;SDS011;45705;55.592;37.460;2023-04-01T09:53:32;11.18;;;6.93;;
58294;SDS011;45705;55.592;37.460;2023-04-01T10:04:46;11.63;;;6.43;;
58294;SDS011;45705;55.592;37.460;2023-04-01T10:10:19;10.57;;;6.28;;
58294;SDS011;45705;55.592;37.460;2023-04-01T10:13:07;9.38;;;5.82;;
58294;SDS011;45705;55.592;37.460;2023-04-01T10:19:03;14.80;;;7.88;;
58294;SDS011;45705;55.592;37.460;2023-04-01T10:24:43;10.32;;;6.20;;
58294;SDS011;45705;55.592;37.460;2023-04-01T10:51:01;8.95;;;5.50;;
58294;SDS011;45705;55.592;37.460;2023-04-01T11:03:24;7.85;;;4.70;;
58294;SDS011;45705;55.592;37.460;2023-04-01T12:04:36;10.30;;;4.72;;
58294;SDS011;45705;55.592;37.460;2023-04-01T12:07:14;6.47;;;4.65;;
58294;SDS011;45705;55.592;37.460;2023-04-01T12:15:29;8.82;;;5.05;;
58294;SDS011;45705;55.592;37.460;2023-04-01T12:20:50;9.65;;;5.15;;
58294;SDS011;45705;55.592;37.460;2023-04-01T12:45:23;11.98;;;6.43;;
58294;SDS011;45705;55.592;37.460;2023-04-01T13:05:24;11.15;;;5.45;;
58294;SDS011;45705;55.592;37.460;2023-04-01T13:38:20;11.45;;;7.32;;
58294;SDS011;45705;55.592;37.460;2023-04-01T13:47:21;12.90;;;7.45;;
58294;SDS011;45705;55.592;37.460;2023-04-01T13:50:03;13.10;;;7.85;;
58294;SDS011;45705;55.592;37.460;2023-04-01T13:52:54;21.55;;;8.05;;
58294;SDS011;45705;55.592;37.460;2023-04-01T14:04:17;18.38;;;7.97;;
58294;SDS011;45705;55.592;37.460;2023-04-01T14:13:18;16.70;;;7.35;;
58294;SDS011;45705;55.592;37.460;2023-04-01T14:31:51;16.42;;;8.73;;
58294;SDS011;45705;55.592;37.460;2023-04-01T14:49:52;19.42;;;10.02;;
58294;SDS011;45705;55.592;37.460;2023-04-01T14:52:31;15.85;;;8.48;;
58294;SDS011;45705;55.592;37.460;2023-04-01T14:54:59;17.58;;;10.68;;
58294;SDS011;45705;55.592;37.460;2023-04-01T14:57:29;15.80;;;9.45;;
58294;SDS011;45705;55.592;37.460;2023-04-01T15:00:00;14.32;;;8.77;;
58294;SDS011;45705;55.592;37.460;2023-04-01T15:04:59;19.17;;;10.13;;
58294;SDS011;45705;55.592;37.460;2023-04-01T15:13:15;15.55;;;9.35;;
58294;SDS011;45705;55.592;37.460;2023-04-01T15:23:56;14.35;;;9.60;;
58294;SDS011;45705;55.592;37.460;2023-04-01T15:34:29;21.77;;;10.85;;
58294;SDS011;45705;55.592;37.460;2023-04-01T15:37:15;14.20;;;9.18;;
58294;SDS011;45705;55.592;37.460;2023-04-01T15:39:56;16.35;;;9.45;;
58294;SDS011;45705;55.592;37.460;2023-04-01T15:45:10;20.35;;;11.02;;
58294;SDS011;45705;55.592;37.460;2023-04-01T15:47:44;14.75;;;9.70;;
58294;SDS011;45705;55.592;37.460;2023-04-01T16:00:58;16.08;;;9.40;;
58294;SDS011;45705;55.592;37.460;2023-04-01T16:03:40;15.38;;;9.52;;
58294;SDS011;45705;55.592;37.460;2023-04-01T16:06:34;14.38;;;8.98;;
58294;SDS011;45705;55.592;37.460;2023-04-01T16:09:13;12.98;;;8.40;;
58294;SDS011;45705;55.592;37.460;2023-04-01T16:11:54;17.13;;;9.73;;
58294;SDS011;45705;55.592;37.460;2023-04-01T16:17:27;17.67;;;10.73;;
58294;SDS011;45705;55.592;37.460;2023-04-01T16:20:20;18.00;;;10.45;;
58294;SDS011;45705;55.592;37.460;2023-04-01T16:23:13;18.23;;;10.95;;
58294;SDS011;45705;55.592;37.460;2023-04-01T16:31:08;21.90;;;11.55;;
58294;SDS011;45705;55.592;37.460;2023-04-01T16:33:40;19.75;;;11.48;;
58294;SDS011;45705;55.592;37.460;2023-04-01T16:47:38;18.58;;;10.32;;
58294;SDS011;45705;55.592;37.460;2023-04-01T16:53:01;17.20;;;11.43;;
58294;SDS011;45705;55.592;37.460;2023-04-01T16:58:40;20.55;;;11.30;;
58294;SDS011;45705;55.592;37.460;2023-04-01T17:01:13;17.48;;;10.40;;
58294;SDS011;45705;55.592;37.460;2023-04-01T17:03:49;17.60;;;11.38;;
58294;SDS011;45705;55.592;37.460;2023-04-01T17:09:14;18.38;;;12.15;;
58294;SDS011;45705;55.592;37.460;2023-04-01T17:12:17;18.50;;;11.48;;
58294;SDS011;45705;55.592;37.460;2023-04-01T17:20:09;17.80;;;11.30;;
58294;SDS011;45705;55.592;37.460;2023-04-01T17:31:11;15.85;;;9.77;;
58294;SDS011;45705;55.592;37.460;2023-04-01T17:36:25;18.65;;;11.73;;
58294;SDS011;45705;55.592;37.460;2023-04-01T17:42:07;17.83;;;11.50;;
58294;SDS011;45705;55.592;37.460;2023-04-01T17:47:36;19.65;;;11.18;;
58294;SDS011;45705;55.592;37.460;2023-04-01T17:50:24;20.08;;;12.43;;
58294;SDS011;45705;55.592;37.460;2023-04-01T17:53:19;19.95;;;11.40;;
58294;SDS011;45705;55.592;37.460;2023-04-01T18:10:36;19.95;;;11.55;;
58294;SDS011;45705;55.592;37.460;2023-04-01T18:16:42;18.52;;;11.00;;
58294;SDS011;45705;55.592;37.460;2023-04-01T18:27:40;21.77;;;12.80;;
58294;SDS011;45705;55.592;37.460;2023-04-01T18:32:36;20.70;;;13.05;;
58294;SDS011;45705;55.592;37.460;2023-04-01T18:35:17;19.77;;;10.95;;
58294;SDS011;45705;55.592;37.460;2023-04-01T18:38:28;20.85;;;12.82;;
58294;SDS011;45705;55.592;37.460;2023-04-01T18:46:39;21.20;;;12.18;;
58294;SDS011;45705;55.592;37.460;2023-04-01T18:49:29;19.65;;;11.82;;
58294;SDS011;45705;55.592;37.460;2023-04-01T19:03:16;22.27;;;14.18;;
58294;SDS011;45705;55.592;37.460;2023-04-01T19:05:44;26.02;;;14.07;;
58294;SDS011;45705;55.592;37.460;2023-04-01T19:19:22;24.05;;;14.00;;
58294;SDS011;45705;55.592;37.460;2023-04-01T19:22:03;22.02;;;13.77;;
58294;SDS011;45705;55.592;37.460;2023-04-01T19:24:53;24.23;;;14.07;;
58294;SDS011;45705;55.592;37.460;2023-04-01T19:27:45;23.52;;;13.88;;
58294;SDS011;45705;55.592;37.460;2023-04-01T19:41:57;26.90;;;13.10;;
58294;SDS011;45705;55.592;37.460;2023-04-01T19:52:39;23.88;;;14.38;;
58294;SDS011;45705;55.592;37.460;2023-04-01T20:00:58;24.35;;;14.85;;
58294;SDS011;45705;55.592;37.460;2023-04-01T20:06:02;27.55;;;14.68;;
58294;SDS011;45705;55.592;37.460;2023-04-01T20:12:06;21.80;;;13.70;;
58294;SDS011;45705;55.592;37.460;2023-04-01T20:25:13;29.25;;;15.80;;
58294;SDS011;45705;55.592;37.460;2023-04-01T20:27:50;24.92;;;13.82;;
58294;SDS011;45705;55.592;37.460;2023-04-01T20:44:27;31.45;;;15.02;;
58294;SDS011;45705;55.592;37.460;2023-04-01T20:54:57;21.85;;;14.23;;
58294;SDS011;45705;55.592;37.460;2023-04-01T20:57:27;29.13;;;16.27;;
58294;SDS011;45705;55.592;37.460;2023-04-01T21:28:12;28.98;;;15.63;;
58294;SDS011;45705;55.592;37.460;2023-04-01T21:31:15;25.52;;;15.13;;
58294;SDS011;45705;55.592;37.460;2023-04-01T21:33:59;27.77;;;15.38;;
58294;SDS011;45705;55.592;37.460;2023-04-01T21:37:02;26.88;;;15.73;;
58294;SDS011;45705;55.592;37.460;2023-04-01T21:39:53;28.33;;;15.45;;
58294;SDS011;45705;55.592;37.460;2023-04-01T22:08:04;29.80;;;15.77;;
58294;SDS011;45705;55.592;37.460;2023-04-01T22:13:31;28.35;;;16.02;;
58294;SDS011;45705;55.592;37.460;2023-04-01T22:16:23;30.92;;;16.80;;
58294;SDS011;45705;55.592;37.460;2023-04-01T22:19:01;30.92;;;16.27;;
58294;SDS011;45705;55.592;37.460;2023-04-01T22:21:32;30.38;;;16.70;;
58294;SDS011;45705;55.592;37.460;2023-04-01T22:24:29;32.13;;;17.67;;
58294;SDS011;45705;55.592;37.460;2023-04-01T22:35:31;36.15;;;18.30;;
58294;SDS011;45705;55.592;37.460;2023-04-01T22:38:12;33.15;;;17.95;;
58294;SDS011;45705;55.592;37.460;2023-04-01T22:57:05;40.00;;;20.13;;
58294;SDS011;45705;55.592;37.460;2023-04-01T22:59:48;41.30;;;19.85;;
58294;SDS011;45705;55.592;37.460;2023-04-01T23:02:16;37.20;;;19.30;;
58294;SDS011;45705;55.592;37.460;2023-04-01T23:04:49;40.17;;;20.67;;
58294;SDS011;45705;55.592;37.460;2023-04-01T23:10:22;38.97;;;20.02;;
58294;SDS011;45705;55.592;37.460;2023-04-01T23:12:52;41.38;;;21.70;;
58294;SDS011;45705;55.592;37.460;2023-04-01T23:15:22;38.03;;;19.55;;
58294;SDS011;45705;55.592;37.460;2023-04-01T23:26:04;47.83;;;21.13;;
58294;SDS011;45705;55.592;37.460;2023-04-01T23:28:50;43.90;;;20.45;;
58294;SDS011;45705;55.592;37.460;2023-04-01T23:36:39;43.88;;;19.95;;
58294;SDS011;45705;55.592;37.460;2023-04-01T23:39:29;41.05;;;19.05;;
58294;SDS011;45705;55.592;37.460;2023-04-01T23:41:59;43.72;;;20.55;;
58294;SDS011;45705;55.592;37.460;2023-04-01T23:44:46;34.97;;;18.30;;
58294;SDS011;45705;55.592;37.460;2023-04-01T23:47:18;43.13;;;20.50;;
58294;SDS011;45705;55.592;37.460;2023-04-01T23:49:48;44.97;;;21.25;;
58294;SDS011;45705;55.592;37.460;2023-04-01T23:52:26;39.78;;;20.38;;
58294;SDS011;45705;55.592;37.460;2023-04-01T23:57:39;42.05;;;19.55;;
